This is the latest recevied weather packets stored in our database for station/object TG5ALY-15. If no packets are shown the sender has not sent any weather packets the latest 10 day(s).
| Time | Temp. | Humidity | Pressure | Rain* | Wind** | Luminosity | Snow |
|---|---|---|---|---|---|---|---|
| 1777739118 | 21.11° C | 43% | 1029.9 hPa | 0 mm | - | 862 W/m² | - |
| 1777737918 | 20.56° C | 44% | 1030.4 hPa | 0 mm | - | 639 W/m² | - |
| 1777735478 | 18.89° C | 53% | 1030.4 hPa | 0 mm | - | 679 W/m² | - |
| 1777734278 | 17.78° C | 60% | 1030.8 hPa | 0 mm | - | 595 W/m² | - |
| 1777733075 | 16.67° C | 61% | 1030.4 hPa | 0 mm | - | 527 W/m² | - |
| 1777731875 | 15° C | 69% | 1030.8 hPa | 0 mm | - | 444 W/m² | - |
| 1777730671 | 13.33° C | 76% | 1030.4 hPa | 0 mm | - | 349 W/m² | - |
| 1777729468 | 13.33° C | 76% | 1030.4 hPa | 0 mm | - | 263 W/m² | - |
| 1777728267 | 11.67° C | 79% | 1029.9 hPa | 0 mm | - | 192 W/m² | - |
| 1777727068 | 11.11° C | 79% | 1029.9 hPa | 0 mm | - | 106 W/m² | - |
| 1777724667 | 8.89° C | 88% | 1029.2 hPa | 0 mm | - | 25 W/m² | - |
| 1777723467 | 9.44° C | 89% | 1029.2 hPa | 0 mm | - | 15 W/m² | - |
| 1777721062 | 8.33° C | 88% | 1028.7 hPa | 0 mm | - | 0 W/m² | - |
| 1777719857 | 10° C | 86% | 1029.2 hPa | 0 mm | - | 0 W/m² | - |
| 1777718652 | 10° C | 83% | 1028.7 hPa | 0 mm | - | 0 W/m² | - |
| 1777717451 | 10° C | 82% | 1028.3 hPa | 0 mm | - | 0 W/m² | - |
| 1777716250 | 10.56° C | 86% | 1028.3 hPa | 0 mm | - | 0 W/m² | - |
| 1777715045 | 10° C | 86% | 1028.3 hPa | 0 mm | - | 0 W/m² | - |
| 1777713842 | 10.56° C | 85% | 1028.3 hPa | 0 mm | - | 0 W/m² | - |
| 1777712641 | 11.11° C | 86% | 1028.3 hPa | 0 mm | - | 0 W/m² | - |
| 1777711440 | 11.11° C | 84% | 1028.3 hPa | 0 mm | - | 0 W/m² | - |
| 1777710239 | 11.11° C | 86% | 1028.7 hPa | 0 mm | - | 0 W/m² | - |
| 1777709033 | 10.56° C | 89% | 1028.7 hPa | 0 mm | - | 0 W/m² | - |
| 1777707829 | 11.11° C | 89% | 1028.7 hPa | 0 mm | - | 0 W/m² | - |
| 1777706628 | 11.67° C | 89% | 1029.2 hPa | 0 mm | - | 0 W/m² | - |
* Rain latest hour (hover to see other rain measurements)
** Current wind speed in m/s (hover to see current wind gust speed)